Time;durP1;ratioP1;P1;durP2;ratioP2;P2;SDS_P1;SDS_P2;PMS_P1;PMS_P2;Temp;Humidity;BMP_temperature;BMP_pressure;BME280_temperature;BME280_humidity;BME280_pressure;Samples;Min_cycle;Max_cycle;Signal;HPM_P1;HPM_P2
2023/05/22 00:00:46;;;;;;;22.53;18.03;;;;;;;15.72;100.00;101308.78;5263347;28;20032;-72
2023/05/22 00:03:18;;;;;;;21.10;17.77;;;;;;;15.57;100.00;101300.38;5262110;28;20108;-72
2023/05/22 00:05:49;;;;;;;20.90;17.80;;;;;;;15.53;100.00;101306.59;5263237;28;20100;-71
2023/05/22 00:08:21;;;;;;;23.77;19.87;;;;;;;15.48;100.00;101297.97;5295681;28;20111;-71
2023/05/22 00:10:53;;;;;;;23.00;19.57;;;;;;;15.48;100.00;101298.81;5261905;28;20144;-71
2023/05/22 00:13:24;;;;;;;22.88;18.98;;;;;;;15.36;100.00;101299.16;5261727;28;20044;-70
2023/05/22 00:15:55;;;;;;;20.43;18.37;;;;;;;15.38;100.00;101296.50;5262840;28;20465;-72
2023/05/22 00:18:27;;;;;;;22.60;20.23;;;;;;;15.25;100.00;101302.03;5262493;28;20021;-70
2023/05/22 00:20:58;;;;;;;23.63;19.93;;;;;;;15.21;100.00;101299.50;5262856;28;20029;-70
2023/05/22 00:23:30;;;;;;;21.17;18.33;;;;;;;15.31;100.00;101301.00;5262072;28;20036;-71
2023/05/22 00:26:01;;;;;;;25.30;21.17;;;;;;;15.18;100.00;101295.19;5262709;28;20033;-70
2023/05/22 00:28:32;;;;;;;24.37;20.97;;;;;;;15.05;100.00;101289.38;5262769;28;20060;-71
2023/05/22 00:31:04;;;;;;;23.80;21.23;;;;;;;15.16;100.00;101297.00;5262343;28;20036;-72
2023/05/22 00:33:35;;;;;;;27.07;22.27;;;;;;;14.99;100.00;101291.25;5262821;28;20061;-71
2023/05/22 00:36:07;;;;;;;28.93;22.20;;;;;;;15.04;100.00;101294.66;5263079;28;20032;-71
2023/05/22 00:38:38;;;;;;;26.20;22.43;;;;;;;14.99;100.00;101288.63;5262858;28;20083;-71
2023/05/22 00:41:10;;;;;;;29.23;21.13;;;;;;;14.94;100.00;101291.38;5262844;28;20030;-70
2023/05/22 00:43:43;;;;;;;24.70;22.03;;;;;;;14.98;100.00;101286.94;5261634;28;20052;-71
2023/05/22 00:46:20;;;;;;;24.30;21.70;;;;;;;15.10;100.00;101289.25;5261618;28;20040;-71
2023/05/22 00:48:51;;;;;;;25.23;21.95;;;;;;;14.94;100.00;101292.25;5262731;28;20070;-71
2023/05/22 00:51:23;;;;;;;27.13;21.80;;;;;;;14.92;100.00;101290.53;5262468;28;20124;-71
2023/05/22 00:53:55;;;;;;;27.08;21.80;;;;;;;14.93;100.00;101280.00;5262128;28;20036;-71
2023/05/22 00:56:27;;;;;;;28.20;23.02;;;;;;;14.76;100.00;101295.28;5261173;28;20036;-71
2023/05/22 00:58:59;;;;;;;27.52;23.02;;;;;;;14.82;100.00;101284.66;5261161;28;20036;-71
2023/05/22 01:01:32;;;;;;;27.50;23.03;;;;;;;14.78;100.00;101288.25;5262761;28;20468;-72
2023/05/22 01:04:06;;;;;;;25.17;22.33;;;;;;;14.90;100.00;101285.31;5262364;28;20036;-71
2023/05/22 01:06:40;;;;;;;25.55;22.85;;;;;;;14.69;100.00;101294.53;5262934;28;20065;-73
2023/05/22 01:09:11;;;;;;;26.55;22.52;;;;;;;14.72;100.00;101293.63;5263634;28;20501;-71
2023/05/22 01:12:04;;;;;;;29.77;24.13;;;;;;;14.65;100.00;101294.66;5262405;28;20037;-70
2023/05/22 01:14:45;;;;;;;31.02;24.33;;;;;;;14.50;100.00;101288.78;5262299;28;20025;-72
2023/05/22 01:17:40;;;;;;;26.88;23.63;;;;;;;14.42;100.00;101285.47;5259296;28;20457;-70
2023/05/22 01:20:23;;;;;;;26.30;23.25;;;;;;;14.43;100.00;101289.84;5261578;28;20132;-71
2023/05/22 01:22:59;;;;;;;32.03;22.67;;;;;;;14.43;100.00;101289.84;5239431;28;20542;-71
2023/05/22 01:26:01;;;;;;;29.08;24.10;;;;;;;14.40;100.00;101290.75;5240996;28;20055;-70
2023/05/22 01:29:08;;;;;;;33.60;24.08;;;;;;;14.33;100.00;101294.41;5250767;28;20455;-71
2023/05/22 01:31:41;;;;;;;25.08;22.42;;;;;;;14.39;100.00;101289.03;5240980;28;20053;-71
2023/05/22 01:34:15;;;;;;;26.13;22.13;;;;;;;14.27;100.00;101291.91;5241411;28;20044;-72
2023/05/22 01:36:47;;;;;;;26.58;23.17;;;;;;;14.33;100.00;101283.03;5244629;28;20561;-71
2023/05/22 01:39:20;;;;;;;31.35;23.60;;;;;;;14.29;100.00;101282.22;5244913;28;20103;-71
2023/05/22 01:41:51;;;;;;;31.85;24.60;;;;;;;14.22;100.00;101288.50;5244483;28;20042;-71
2023/05/22 01:44:24;;;;;;;26.17;23.33;;;;;;;14.04;100.00;101287.13;5244092;28;20091;-71
2023/05/22 01:46:59;;;;;;;30.55;24.33;;;;;;;13.98;100.00;101288.09;5244395;28;20025;-71
2023/05/22 01:49:32;;;;;;;28.85;22.85;;;;;;;13.91;100.00;101278.63;5244237;28;20065;-71
2023/05/22 01:52:22;;;;;;;27.92;23.38;;;;;;;13.92;100.00;101285.56;5244525;28;20080;-71
2023/05/22 01:55:12;;;;;;;31.13;24.55;;;;;;;13.84;100.00;101283.09;5242928;28;20037;-71
2023/05/22 01:57:55;;;;;;;28.45;23.95;;;;;;;13.76;100.00;101281.50;5244373;28;20080;-71
2023/05/22 02:00:28;;;;;;;31.00;24.08;;;;;;;13.81;100.00;101275.31;5243358;28;20498;-72
2023/05/22 02:03:06;;;;;;;30.27;23.85;;;;;;;13.75;100.00;101280.66;5265152;28;20044;-70
2023/05/22 02:05:38;;;;;;;32.05;25.40;;;;;;;13.74;100.00;101280.69;5263410;28;20029;-71
2023/05/22 02:08:12;;;;;;;30.38;24.38;;;;;;;13.66;100.00;101279.03;5264795;28;20045;-72
2023/05/22 02:10:45;;;;;;;29.00;23.63;;;;;;;13.58;100.00;101270.47;5264013;28;20128;-71
2023/05/22 02:13:17;;;;;;;31.75;24.98;;;;;;;13.64;100.00;101278.22;5264947;28;20025;-71
2023/05/22 02:15:49;;;;;;;31.55;24.45;;;;;;;13.63;100.00;101279.09;5263886;28;20036;-70
2023/05/22 02:18:28;;;;;;;27.05;23.88;;;;;;;13.53;100.00;101280.16;5263785;28;20079;-71
2023/05/22 02:21:01;;;;;;;35.20;24.83;;;;;;;13.52;100.00;101273.19;5265155;28;20575;-71
2023/05/22 02:23:33;;;;;;;31.48;25.35;;;;;;;13.47;100.00;101273.25;5264628;28;20511;-70
2023/05/22 02:26:04;;;;;;;28.53;24.63;;;;;;;13.50;100.00;101275.81;5264852;28;20033;-71
2023/05/22 02:28:36;;;;;;;29.60;25.20;;;;;;;13.46;100.00;101273.31;5264826;28;20029;-71
2023/05/22 02:31:08;;;;;;;30.63;24.38;;;;;;;13.57;100.00;101271.38;5263486;28;20328;-72
2023/05/22 02:33:39;;;;;;;32.83;25.43;;;;;;;13.59;100.00;101268.72;5264399;28;20029;-70
2023/05/22 02:36:13;;;;;;;31.27;26.60;;;;;;;13.45;100.00;101261.09;5263483;28;20029;-70
2023/05/22 02:38:44;;;;;;;36.15;26.40;;;;;;;13.38;100.00;101256.84;5263126;28;20029;-71
2023/05/22 02:41:17;;;;;;;34.63;27.00;;;;;;;13.45;100.00;101266.34;5263366;28;20056;-72
2023/05/22 02:43:48;;;;;;;35.13;25.23;;;;;;;13.39;100.00;101271.69;5263241;28;20052;-70
2023/05/22 02:46:20;;;;;;;38.00;28.80;;;;;;;13.37;100.00;101263.00;5263765;28;20033;-71
2023/05/22 02:48:51;;;;;;;35.30;26.23;;;;;;;13.31;100.00;101266.53;5264091;28;20029;-71
2023/05/22 02:51:22;;;;;;;35.90;27.57;;;;;;;13.33;100.00;101256.94;5264110;28;20388;-72
2023/05/22 02:53:54;;;;;;;34.23;27.73;;;;;;;13.31;100.00;101253.44;5263561;28;20033;-71
2023/05/22 02:56:27;;;;;;;32.13;25.80;;;;;;;13.43;100.00;101260.28;5264502;28;20101;-71
2023/05/22 02:58:59;;;;;;;32.55;26.00;;;;;;;13.35;100.00;101254.28;5264667;28;20595;-72
2023/05/22 03:01:30;;;;;;;33.97;27.03;;;;;;;13.35;100.00;101255.16;5265632;28;20120;-71
2023/05/22 03:04:01;;;;;;;34.23;27.60;;;;;;;13.23;100.00;101252.69;5265880;28;20052;-71
2023/05/22 03:06:34;;;;;;;31.30;27.10;;;;;;;13.27;100.00;101262.25;5265418;28;20041;-71
2023/05/22 03:09:05;;;;;;;35.47;28.25;;;;;;;13.27;100.00;101262.25;5265118;28;20029;-71
2023/05/22 03:11:37;;;;;;;30.50;26.13;;;;;;;13.29;100.00;101265.69;5264321;28;20033;-73
2023/05/22 03:14:09;;;;;;;33.63;26.65;;;;;;;13.14;100.00;101251.97;5279273;28;20037;-71
2023/05/22 03:16:40;;;;;;;33.43;25.87;;;;;;;13.13;100.00;101244.13;5262791;28;20033;-70
2023/05/22 03:19:13;;;;;;;38.53;27.93;;;;;;;13.06;100.00;101250.38;5263951;28;20123;-70
2023/05/22 03:21:45;;;;;;;37.33;27.95;;;;;;;13.04;100.00;101249.50;5263812;28;20044;-70
2023/05/22 03:24:16;;;;;;;32.97;26.73;;;;;;;12.95;100.00;101250.53;5262078;28;20036;-71
2023/05/22 03:26:48;;;;;;;34.00;27.87;;;;;;;12.87;100.00;101250.63;5263730;28;20082;-72
2023/05/22 03:29:20;;;;;;;36.13;28.67;;;;;;;12.89;100.00;101243.63;5296106;28;20036;-70
2023/05/22 03:31:53;;;;;;;35.90;27.60;;;;;;;12.89;100.00;101242.75;5263753;28;20033;-70
2023/05/22 03:34:26;;;;;;;37.58;28.67;;;;;;;12.73;100.00;101247.34;5263742;28;20376;-71
2023/05/22 03:36:57;;;;;;;35.83;28.42;;;;;;;12.68;100.00;101250.03;5262577;28;20464;-71
2023/05/22 03:39:29;;;;;;;38.90;31.77;;;;;;;12.60;100.00;101246.66;5263507;28;20072;-71
2023/05/22 03:42:00;;;;;;;38.80;29.83;;;;;;;12.56;100.00;101245.84;5263465;28;20067;-70
2023/05/22 03:44:31;;;;;;;39.17;28.87;;;;;;;12.57;100.00;101242.34;5263822;28;20422;-72
2023/05/22 03:47:03;;;;;;;39.70;29.03;;;;;;;12.58;100.00;101251.91;5295931;28;20037;-72
2023/05/22 03:49:34;;;;;;;35.73;28.83;;;;;;;12.58;100.00;101258.91;5262087;28;20480;-70
2023/05/22 03:52:08;;;;;;;39.70;29.07;;;;;;;12.65;100.00;101246.59;5263276;28;20120;-71
2023/05/22 03:54:40;;;;;;;37.75;28.17;;;;;;;12.59;100.00;101242.34;5262637;28;20552;-73
2023/05/22 03:57:11;;;;;;;36.67;29.10;;;;;;;12.54;100.00;101244.13;5261864;28;20065;-72
2023/05/22 03:59:42;;;;;;;36.27;30.67;;;;;;;12.53;100.00;101231.94;5262970;28;20055;-72
2023/05/22 04:02:15;;;;;;;39.87;29.23;;;;;;;12.49;100.00;101240.72;5262592;28;20090;-72
2023/05/22 04:04:46;;;;;;;;;;;;;;;12.52;100.00;101243.28;5262132;28;20128;-72
2023/05/22 04:07:19;;;;;;;41.30;29.65;;;;;;;12.51;100.00;101239.81;5262885;28;20015;-71
2023/05/22 04:09:50;;;;;;;45.15;31.38;;;;;;;12.44;100.00;101232.06;5261632;28;20472;-71
2023/05/22 04:12:21;;;;;;;44.73;31.57;;;;;;;12.38;100.00;101233.00;5262747;28;20040;-71
2023/05/22 04:14:53;;;;;;;35.43;30.27;;;;;;;12.38;100.00;101238.22;5262512;28;20033;-72
2023/05/22 04:17:30;;;;;;;39.70;30.40;;;;;;;12.37;100.00;101234.75;5261688;28;20064;-71
2023/05/22 04:20:03;;;;;;;41.95;29.35;;;;;;;12.42;100.00;101233.84;5262798;28;20523;-71
2023/05/22 04:22:35;;;;;;;39.97;31.08;;;;;;;12.38;100.00;101233.88;5262589;28;20029;-70
2023/05/22 04:25:07;;;;;;;34.37;28.77;;;;;;;12.59;100.00;101231.88;5262384;28;20079;-74
2023/05/22 04:27:39;;;;;;;40.80;29.70;;;;;;;12.50;100.00;101250.28;5261207;28;20037;-72
2023/05/22 04:30:10;;;;;;;37.43;27.50;;;;;;;12.59;100.00;101247.56;5262583;28;20048;-71
2023/05/22 04:32:42;;;;;;;33.80;26.73;;;;;;;12.71;100.00;101256.97;5262207;28;20808;-70
2023/05/22 04:35:17;;;;;;;35.50;29.08;;;;;;;12.63;100.00;101259.69;5262545;28;20472;-71
2023/05/22 04:37:49;;;;;;;38.38;27.92;;;;;;;12.81;100.00;101258.56;5262369;28;20111;-70
2023/05/22 04:40:20;;;;;;;35.33;27.93;;;;;;;12.81;100.00;101266.41;5262799;28;20416;-71
2023/05/22 04:42:53;;;;;;;35.20;27.47;;;;;;;12.86;100.00;101276.81;5262115;28;20321;-71
2023/05/22 04:45:25;;;;;;;34.85;27.65;;;;;;;12.91;100.00;101270.66;5262309;28;20111;-70
2023/05/22 04:47:58;;;;;;;37.58;26.88;;;;;;;13.00;100.00;101282.72;5262458;28;20468;-71
2023/05/22 04:50:31;;;;;;;;;;;;;;;13.17;100.00;101276.34;5262746;28;20033;-71
2023/05/22 04:53:03;;;;;;;;;;;;;;;13.23;100.00;101282.34;5262233;28;20008;-70
2023/05/22 04:55:34;;;;;;;37.30;27.17;;;;;;;13.18;100.00;101273.72;5294363;28;20007;-71
2023/05/22 04:58:05;;;;;;;39.43;27.77;;;;;;;13.08;100.00;101274.75;5260798;28;20095;-70
2023/05/22 05:00:37;;;;;;;42.80;30.53;;;;;;;13.14;100.00;101288.59;5262333;28;20029;-71
2023/05/22 05:03:10;;;;;;;42.03;29.23;;;;;;;13.15;100.00;101284.22;5262160;28;20033;-71
2023/05/22 05:05:42;;;;;;;45.20;30.30;;;;;;;13.23;100.00;101281.50;5262280;28;20108;-71
2023/05/22 05:08:13;;;;;;;40.05;30.95;;;;;;;13.29;100.00;101284.03;5262718;28;20552;-71
2023/05/22 05:10:45;;;;;;;39.57;31.20;;;;;;;13.18;100.00;101286.81;5265685;28;20033;-71
2023/05/22 05:13:16;;;;;;;39.63;31.43;;;;;;;13.19;100.00;101287.69;5264711;28;20029;-71
2023/05/22 05:15:47;;;;;;;41.00;30.97;;;;;;;13.11;100.00;101296.50;5265673;28;20060;-71
2023/05/22 05:18:19;;;;;;;44.53;32.27;;;;;;;13.10;100.00;101291.28;5266110;28;20037;-72
2023/05/22 05:20:50;;;;;;;41.27;30.43;;;;;;;13.10;100.00;101294.75;5265988;28;20030;-70
2023/05/22 05:23:22;;;;;;;44.33;30.90;;;;;;;13.16;100.00;101298.19;5265838;28;20037;-71
2023/05/22 05:25:53;;;;;;;48.53;31.30;;;;;;;13.16;100.00;101301.66;5265510;28;20036;-71
2023/05/22 05:28:25;;;;;;;43.13;31.77;;;;;;;13.20;100.00;101303.38;5265872;28;20074;-71
2023/05/22 05:30:56;;;;;;;39.10;29.73;;;;;;;13.28;100.00;101300.59;5265191;28;20033;-70
2023/05/22 05:33:28;;;;;;;50.07;31.70;;;;;;;13.38;100.00;101303.97;5264544;28;20416;-70
2023/05/22 05:35:59;;;;;;;41.77;30.30;;;;;;;13.38;100.00;101299.63;5265394;28;20465;-71
2023/05/22 05:38:30;;;;;;;41.57;30.63;;;;;;;13.48;100.00;101302.94;5265724;28;20086;-71
2023/05/22 05:41:02;;;;;;;46.50;29.60;;;;;;;13.58;100.00;101295.81;5266049;28;20163;-71
2023/05/22 05:43:33;;;;;;;43.03;30.07;;;;;;;13.78;100.00;101298.94;5264263;28;20084;-71
2023/05/22 05:46:05;;;;;;;40.20;27.37;;;;;;;13.82;100.00;101295.38;5265439;28;20037;-71
2023/05/22 05:48:36;;;;;;;39.63;29.87;;;;;;;13.85;100.00;101300.56;5264350;28;20033;-71
2023/05/22 05:51:07;;;;;;;33.60;28.23;;;;;;;13.85;100.00;101297.94;5265200;28;20036;-71
2023/05/22 05:53:42;;;;;;;40.70;28.83;;;;;;;13.78;100.00;101295.44;5265034;28;20040;-72
2023/05/22 05:56:13;;;;;;;39.15;29.85;;;;;;;13.79;100.00;101300.66;5265428;28;20044;-70
2023/05/22 05:58:45;;;;;;;43.03;28.23;;;;;;;13.93;100.00;101304.81;5264124;28;20033;-70
2023/05/22 06:01:17;;;;;;;41.00;29.33;;;;;;;13.85;100.00;101304.94;5265251;28;20040;-70
2023/05/22 06:03:49;;;;;;;40.38;29.15;;;;;;;13.99;100.00;101302.03;5265087;28;20106;-70
2023/05/22 06:06:24;;;;;;;36.50;28.27;;;;;;;14.02;100.00;101310.75;5265200;28;20125;-70
2023/05/22 06:08:56;;;;;;;38.40;29.17;;;;;;;14.19;100.00;101317.41;5264920;28;20051;-72
2023/05/22 06:11:27;;;;;;;42.43;28.50;;;;;;;14.23;100.00;101319.06;5265040;28;20033;-70
2023/05/22 06:14:01;;;;;;;43.20;29.10;;;;;;;14.33;100.00;101325.88;5265007;28;20381;-70
2023/05/22 06:16:33;;;;;;;38.72;29.23;;;;;;;14.44;100.00;101317.81;5264935;28;20036;-70
2023/05/22 06:19:04;;;;;;;36.47;29.30;;;;;;;14.46;100.00;101320.38;5265559;28;20040;-71
2023/05/22 06:21:35;;;;;;;47.23;29.70;;;;;;;14.67;100.00;101317.34;5265157;28;20063;-71
2023/05/22 06:24:08;;;;;;;44.43;31.67;;;;;;;14.80;100.00;101324.97;5265012;28;20040;-74
2023/05/22 06:26:39;;;;;;;42.67;30.77;;;;;;;14.78;100.00;101325.00;5266387;28;20021;-70
2023/05/22 06:29:10;;;;;;;45.20;33.17;;;;;;;14.88;100.00;101325.66;5265246;28;20029;-70
2023/05/22 06:31:42;;;;;;;45.73;30.93;;;;;;;14.84;100.00;101334.47;5266016;28;20025;-71
2023/05/22 06:34:14;;;;;;;45.80;31.98;;;;;;;14.96;100.00;101336.84;5265186;28;20037;-71
2023/05/22 06:36:45;;;;;;;46.80;30.53;;;;;;;15.11;100.00;101341.72;5264639;28;20036;-71
2023/05/22 06:39:17;;;;;;;42.37;31.73;;;;;;;15.01;100.00;101334.97;5264391;28;20025;-71
2023/05/22 06:41:48;;;;;;;43.53;31.17;;;;;;;14.98;100.00;101326.31;5264516;28;20041;-70
2023/05/22 06:44:20;;;;;;;44.87;31.87;;;;;;;14.92;100.00;101336.06;5264047;28;20064;-70
2023/05/22 06:46:51;;;;;;;43.53;32.47;;;;;;;15.07;100.00;101332.22;5262826;28;20029;-70
2023/05/22 06:49:23;;;;;;;53.80;36.73;;;;;;;15.04;100.00;101341.94;5262519;28;20045;-71
2023/05/22 06:51:54;;;;;;;47.60;32.87;;;;;;;15.29;100.00;101336.97;5264245;28;20116;-70
2023/05/22 06:54:27;;;;;;;51.13;34.53;;;;;;;15.17;100.00;101332.88;5264271;28;20056;-70
2023/05/22 06:56:58;;;;;;;58.78;35.97;;;;;;;15.24;100.00;101347.56;5264269;28;20448;-70
2023/05/22 06:59:30;;;;;;;52.23;37.73;;;;;;;14.88;100.00;101349.28;5264005;28;20029;-71
2023/05/22 07:02:01;;;;;;;51.37;40.70;;;;;;;15.01;100.00;101366.47;5262498;28;20029;-71
2023/05/22 07:04:33;;;;;;;51.97;40.43;;;;;;;14.95;100.00;101358.72;5263990;28;20479;-71
2023/05/22 07:07:04;;;;;;;57.37;42.00;;;;;;;14.91;100.00;101364.97;5263639;28;20487;-69
2023/05/22 07:09:36;;;;;;;62.17;43.90;;;;;;;14.97;100.00;101362.19;5262762;28;20025;-71
2023/05/22 07:12:08;;;;;;;66.37;45.73;;;;;;;14.99;100.00;101370.91;5262588;28;20059;-73
2023/05/22 07:14:39;;;;;;;64.45;44.38;;;;;;;14.83;100.00;101367.75;5279341;28;20087;-71
2023/05/22 07:17:10;;;;;;;61.67;45.73;;;;;;;14.97;100.00;101371.81;5262154;28;20029;-71
2023/05/22 07:19:42;;;;;;;62.47;43.23;;;;;;;14.96;100.00;101368.34;5263937;28;20033;-71
2023/05/22 07:22:14;;;;;;;56.20;46.23;;;;;;;15.14;100.00;101372.31;5262558;28;20037;-70
2023/05/22 07:24:46;;;;;;;68.88;49.00;;;;;;;15.06;100.00;101382.13;5263167;28;20029;-71
2023/05/22 07:27:17;;;;;;;65.20;46.75;;;;;;;15.07;100.00;101379.47;5263531;28;20037;-72
2023/05/22 07:29:49;;;;;;;65.87;47.20;;;;;;;15.31;100.00;101367.56;5262354;28;20602;-71
2023/05/22 07:32:20;;;;;;;58.10;45.37;;;;;;;15.41;100.00;101370.81;5262064;28;20025;-70
2023/05/22 07:34:51;;;;;;;62.37;44.53;;;;;;;15.47;100.00;101375.94;5263424;28;20037;-70
2023/05/22 07:37:23;;;;;;;65.83;43.33;;;;;;;15.84;100.00;101376.81;5262120;28;20032;-70
2023/05/22 07:39:54;;;;;;;66.70;45.33;;;;;;;15.98;98.59;101377.31;5263338;28;20116;-70
2023/05/22 07:42:26;;;;;;;57.90;43.40;;;;;;;16.09;97.38;101378.84;5261979;28;20045;-69
2023/05/22 07:44:58;;;;;;;60.13;45.55;;;;;;;16.23;96.65;101374.06;5263222;28;20025;-70
2023/05/22 07:47:29;;;;;;;63.83;44.20;;;;;;;16.44;96.73;101379.63;5263184;28;20068;-70
2023/05/22 07:50:04;;;;;;;59.63;43.70;;;;;;;16.61;95.79;101385.28;5263127;28;20041;-71
2023/05/22 07:52:35;;;;;;;57.72;42.28;;;;;;;16.53;94.68;101384.63;5263386;28;20119;-70
2023/05/22 07:55:07;;;;;;;59.77;44.20;;;;;;;16.60;94.47;101388.84;5262385;28;20174;-72
2023/05/22 07:57:39;;;;;;;49.33;41.22;;;;;;;16.88;93.98;101385.44;5262714;28;20033;-71
2023/05/22 08:00:12;;;;;;;55.73;41.70;;;;;;;16.89;94.44;101387.19;5262982;28;20040;-69
2023/05/22 08:02:43;;;;;;;;;;;;;;;17.23;93.53;101391.41;5263607;28;20480;-71
2023/05/22 08:05:14;;;;;;;48.80;41.38;;;;;;;17.07;93.82;101391.88;5262850;28;19919;-70
2023/05/22 08:07:46;;;;;;;51.23;39.47;;;;;;;17.13;93.53;101398.75;5262977;28;20063;-71
2023/05/22 08:10:18;;;;;;;48.72;38.78;;;;;;;17.29;92.98;101392.09;5261735;28;20060;-70
2023/05/22 08:12:49;;;;;;;48.67;39.80;;;;;;;17.61;91.71;101389.31;5262714;28;20027;-70
2023/05/22 08:15:20;;;;;;;49.43;39.27;;;;;;;17.74;90.58;101392.41;5261307;28;20112;-70
2023/05/22 08:17:52;;;;;;;51.23;40.30;;;;;;;17.81;91.18;101389.53;5261244;28;20094;-71
2023/05/22 08:20:23;;;;;;;47.13;40.70;;;;;;;17.73;90.04;101381.03;5262582;28;20395;-71
2023/05/22 08:22:55;;;;;;;58.77;43.37;;;;;;;17.91;89.19;101384.00;5262449;28;20120;-71
2023/05/22 08:25:27;;;;;;;56.25;45.38;;;;;;;17.95;88.65;101385.59;5262303;28;20063;-70
2023/05/22 08:27:58;;;;;;;65.47;45.83;;;;;;;18.19;87.86;101392.69;5262587;28;20033;-70
2023/05/22 08:30:30;;;;;;;63.40;46.57;;;;;;;18.18;87.73;101393.59;5262678;28;20033;-69
2023/05/22 08:33:01;;;;;;;63.50;49.70;;;;;;;18.21;86.78;101395.28;5262510;28;20041;-71
2023/05/22 08:35:33;;;;;;;73.40;48.50;;;;;;;18.31;85.76;101396.66;5262531;28;20037;-71
2023/05/22 08:38:04;;;;;;;69.17;51.07;;;;;;;18.19;85.74;101392.69;5262546;28;20071;-70
2023/05/22 08:40:37;;;;;;;64.80;51.30;;;;;;;18.05;86.88;101389.66;5262486;28;20040;-70
2023/05/22 08:43:09;;;;;;;65.95;49.92;;;;;;;18.27;86.22;101384.47;5264223;28;20079;-71
2023/05/22 08:45:42;;;;;;;65.87;51.73;;;;;;;18.43;84.35;101392.72;5269337;28;20032;-71
2023/05/22 08:48:17;;;;;;;63.58;51.22;;;;;;;18.63;83.61;101388.47;5268124;28;20033;-72
2023/05/22 08:50:56;;;;;;;68.28;52.30;;;;;;;19.02;82.89;101394.09;5269559;28;20025;-70
2023/05/22 08:53:32;;;;;;;67.90;53.65;;;;;;;18.48;83.29;101393.44;5269080;28;20049;-71
2023/05/22 08:56:05;;;;;;;69.93;53.17;;;;;;;18.58;83.36;101389.53;5268969;28;20037;-70
2023/05/22 08:58:39;;;;;;;77.95;53.70;;;;;;;19.02;82.51;101393.22;5269156;28;20028;-71
2023/05/22 09:01:12;;;;;;;65.97;51.45;;;;;;;19.18;80.21;101396.16;5267863;28;20025;-71
2023/05/22 09:03:48;;;;;;;64.88;50.95;;;;;;;19.66;80.26;101384.53;5268159;28;20095;-70
2023/05/22 09:06:19;;;;;;;64.13;51.65;;;;;;;19.53;78.63;101381.53;5268732;28;20076;-71
2023/05/22 09:08:52;;;;;;;63.17;53.13;;;;;;;19.38;78.18;101393.56;5269072;28;20052;-70
2023/05/22 09:11:24;;;;;;;62.67;49.78;;;;;;;19.58;77.17;101391.91;5269051;28;20074;-71
2023/05/22 09:14:07;;;;;;;61.05;52.13;;;;;;;18.89;80.83;101392.84;5269031;28;20025;-70
2023/05/22 09:16:50;;;;;;;60.38;48.92;;;;;;;18.73;82.22;101393.38;5268685;28;20480;-71
2023/05/22 09:19:22;;;;;;;56.53;47.92;;;;;;;18.98;80.69;101395.09;5269131;28;20060;-71
2023/05/22 09:22:02;;;;;;;56.60;46.77;;;;;;;19.40;80.33;101385.56;5267815;28;20068;-71
2023/05/22 09:24:39;;;;;;;56.70;47.63;;;;;;;19.35;78.72;101398.09;5268971;28;20039;-71
2023/05/22 09:27:10;;;;;;;52.85;44.70;;;;;;;19.84;76.81;101382.91;5268023;28;20047;-70
2023/05/22 09:29:52;;;;;;;56.93;47.10;;;;;;;19.41;77.82;101385.50;5269377;28;20037;-71
2023/05/22 09:32:27;;;;;;;55.63;45.20;;;;;;;19.72;77.13;101396.63;5269756;28;20037;-70
2023/05/22 09:35:03;;;;;;;53.70;45.28;;;;;;;20.12;76.00;101387.03;5269473;28;20043;-71
2023/05/22 09:37:36;;;;;;;49.53;43.30;;;;;;;20.35;73.39;101386.00;5270217;28;20033;-69
2023/05/22 09:40:10;;;;;;;51.78;43.55;;;;;;;20.25;73.36;101385.56;5272042;28;20049;-72
2023/05/22 09:42:43;;;;;;;51.83;43.40;;;;;;;19.97;74.95;101385.91;5272783;28;20041;-70
2023/05/22 09:45:20;;;;;;;48.25;42.83;;;;;;;20.39;76.12;101385.81;5271889;28;20083;-71
2023/05/22 09:47:51;;;;;;;50.58;43.55;;;;;;;20.20;75.08;101376.97;5272048;28;20020;-70
2023/05/22 09:50:23;;;;;;;47.13;39.97;;;;;;;20.74;73.02;101383.41;5272114;28;20043;-70
2023/05/22 09:52:55;;;;;;;45.43;40.53;;;;;;;20.91;71.66;101379.09;5272088;28;20029;-70
2023/05/22 09:55:27;;;;;;;46.28;40.40;;;;;;;21.11;70.69;101376.38;5266113;28;20033;-70
2023/05/22 09:58:03;;;;;;;47.75;42.55;;;;;;;21.48;69.41;101381.72;5265471;28;20036;-71
2023/05/22 10:00:35;;;;;;;48.42;39.70;;;;;;;22.20;66.36;101379.84;5265447;28;20033;-70
2023/05/22 10:03:10;;;;;;;42.58;38.08;;;;;;;22.02;65.80;101384.31;5265037;28;20029;-70
2023/05/22 10:05:46;;;;;;;42.40;37.80;;;;;;;22.57;64.24;101383.25;5265084;28;20025;-70
2023/05/22 10:08:22;;;;;;;42.15;37.30;;;;;;;22.80;62.50;101386.44;5265309;28;20440;-71
2023/05/22 10:10:54;;;;;;;41.53;37.10;;;;;;;22.53;62.28;101392.34;5265240;28;20468;-71
2023/05/22 10:13:26;;;;;;;39.17;34.95;;;;;;;22.98;63.69;101380.13;5264944;28;20063;-70
2023/05/22 10:15:58;;;;;;;43.08;36.55;;;;;;;23.41;61.76;101382.19;5264857;28;20502;-70
2023/05/22 10:18:30;;;;;;;38.95;34.88;;;;;;;23.78;59.23;101367.63;5265039;28;20027;-70
2023/05/22 10:21:02;;;;;;;36.43;32.53;;;;;;;24.40;56.51;101380.75;5264957;28;20523;-71
2023/05/22 10:23:33;;;;;;;36.00;32.22;;;;;;;25.12;54.00;101375.38;5263706;28;20534;-70
2023/05/22 10:26:07;;;;;;;36.58;32.42;;;;;;;24.38;55.13;101374.66;5263751;28;20029;-70
2023/05/22 10:28:46;;;;;;;35.67;31.92;;;;;;;24.05;56.95;101366.06;5264744;28;20087;-70
2023/05/22 10:31:30;;;;;;;34.08;30.23;;;;;;;24.79;59.78;101359.72;5264698;28;20049;-69
2023/05/22 10:34:08;;;;;;;35.05;31.55;;;;;;;24.48;55.97;101366.13;5264441;28;20029;-70
2023/05/22 10:37:06;;;;;;;36.45;32.67;;;;;;;24.30;57.21;101376.09;5264634;28;20380;-69
2023/05/22 10:39:59;;;;;;;31.83;28.63;;;;;;;26.09;53.77;101359.25;5263549;28;20464;-70
2023/05/22 10:42:31;;;;;;;34.38;29.90;;;;;;;27.28;49.70;101360.50;5264423;28;20138;-69
2023/05/22 10:45:06;;;;;;;31.58;27.85;;;;;;;28.44;44.07;101356.22;5263111;28;20036;-70
2023/05/22 10:47:37;;;;;;;31.45;28.33;;;;;;;28.31;45.14;101356.34;5246897;28;20029;-71
2023/05/22 10:50:09;;;;;;;;;;;;;;;29.36;41.67;101361.31;5264588;28;20044;-71
2023/05/22 10:52:41;;;;;;;32.03;28.88;;;;;;;28.64;43.69;101351.94;5264504;28;19920;-70
2023/05/22 10:55:12;;;;;;;;;;;;;;;30.50;40.01;101351.59;5264411;28;20064;-70
2023/05/22 10:57:44;;;;;;;34.72;29.80;;;;;;;28.27;41.51;101350.38;5262933;28;19946;-69
2023/05/22 11:00:17;;;;;;;;;;;;;;;29.74;41.13;101352.72;5264608;28;20360;-69
2023/05/22 11:02:48;;;;;;;32.00;28.70;;;;;;;27.01;44.40;101349.16;5264055;28;19913;-70
2023/05/22 11:05:20;;;;;;;;;;;;;;;29.48;44.39;101336.13;5264031;28;20396;-70
2023/05/22 11:07:51;;;;;;;32.55;29.10;;;;;;;27.62;43.35;101346.44;5263570;28;20377;-70
2023/05/22 11:10:26;;;;;;;;;;;;;;;28.40;43.53;101352.06;5264063;28;20037;-69
2023/05/22 11:13:09;;;;;;;29.08;26.08;;;;;;;28.72;49.42;101338.75;5263638;28;20325;-69
2023/05/22 11:15:45;;;;;;;30.83;27.45;;;;;;;29.52;40.96;101332.19;5264022;28;20025;-69
2023/05/22 11:18:17;;;;;;;29.65;26.67;;;;;;;31.04;37.83;101327.94;5263866;28;20061;-70
2023/05/22 11:20:48;;;;;;;28.88;25.00;;;;;;;29.88;39.01;101334.56;5263715;28;20140;-70
2023/05/22 11:23:19;;;;;;;29.70;26.73;;;;;;;29.63;39.05;101339.34;5263493;28;20033;-71
2023/05/22 11:25:51;;;;;;;28.02;25.25;;;;;;;28.63;41.25;101331.50;5263502;28;20430;-70
2023/05/22 11:28:23;;;;;;;27.92;24.98;;;;;;;28.33;42.65;101331.09;5263542;28;20112;-69
2023/05/22 11:30:54;;;;;;;26.73;23.98;;;;;;;29.96;44.05;101326.69;5263449;28;20499;-69
2023/05/22 11:33:26;;;;;;;29.35;26.30;;;;;;;29.73;39.11;101331.34;5263339;28;20025;-70